Flight Track Log - Related Links

Times and Time Zones

All times are in EDT time to prevent confusion due to time zone crossing. See the ASQ5157 flight status page for this flight to view local times or setup timezone preferences in your user account.

Time Position Orientation Groundspeed Altitude Reporting Facility
EDT Latitude Longitude Course Direction KTS MPH feet Rate Location/Type
Mon 12:35:42 PM 32.2875 -90.0119 114° Southeast 244 281 3,100  Level Memphis Center
Mon 12:35:58 PM 32.3058 -89.9947 38° Northeast 246 283 3,600 1,742 Climbing Memphis Center
Mon 12:36:44 PM 32.3464 -89.9583 37° Northeast 263 303 4,900 2,000 Climbing Memphis Center
Mon 12:37:46 PM 32.4014 -89.8867 48° Northeast 290 334 7,200 2,419 Climbing Memphis Center
Mon 12:38:48 PM 32.4019 -89.7697 90° East 301 346 9,900 2,177 Climbing Memphis Center
Mon 12:39:50 PM 32.4011 -89.6692 91° East 303 349 11,700 1,597 Climbing Memphis Center
Mon 12:40:52 PM 32.4400 -89.5722 65° Northeast 325 374 13,200 1,403 Climbing Memphis Center
Mon 12:41:54 PM 32.4833 -89.4714 63° Northeast 341 392 14,600 1,355 Climbing Memphis Center
Mon 12:42:56 PM 32.5017 -89.3581 79° East 365 420 16,000 1,548 Climbing Memphis Center
Mon 12:43:58 PM 32.5003 -89.2172 91° East 361 415 17,800 1,548 Climbing Memphis Center
Mon 12:45:00 PM 32.4961 -89.0997 92° East 361 415 19,200 1,258 Climbing Memphis Center
Mon 12:46:02 PM 32.4858 -88.9803 96° East 363 418 20,400 968 Climbing Memphis Center
Mon 12:47:04 PM 32.4767 -88.8569 95° East 372 428 21,200 774 Climbing Memphis Center
Mon 12:48:06 PM 32.4689 -88.7286 94° East 382 440 22,000 864 Climbing Memphis Center
Mon 12:49:09 PM 32.4578 -88.5694 95° East 402 463 23,000 864 Climbing Memphis Center
Mon 12:50:11 PM 32.4486 -88.4342 95° East 403 464 23,800 750 Climbing Memphis Center
Mon 12:51:01 PM 32.4444 -88.3214 92° East 404 465 24,400 818 Climbing Atlanta Center
Mon 12:52:01 PM 32.4719 -88.1897 76° East 409 471 25,300 850 Climbing Atlanta Center
Mon 12:53:01 PM 32.5014 -88.0581 75° East 409 471 26,100 750 Climbing Atlanta Center
Mon 12:54:01 PM 32.5242 -87.9336 78° East 420 483 26,800 450 Climbing Atlanta Center
Mon 12:55:01 PM 32.5536 -87.7969 76° East 425 489 27,000 100 Climbing Atlanta Center
Mon 12:56:01 PM 32.5806 -87.6575 77° East 430 495 27,000  Level Atlanta Center
Mon 12:57:01 PM 32.6097 -87.5156 76° East 435 501 27,000 -500 Level Atlanta Center
Mon 12:58:01 PM 32.6389 -87.3689 77° East 441 507 26,000 -1,000 Descending Atlanta Center
Mon 12:59:01 PM 32.6678 -87.2244 77° East 446 513 25,000 -1,000 Descending Atlanta Center
Mon 01:00:01 PM 32.6964 -87.0797 77° East 446 513 24,000 -500 Descending Atlanta Center
Mon 01:01:01 PM 32.7228 -86.9375 78° East 451 519 24,000  Level Atlanta Center
Mon 01:02:01 PM 32.7508 -86.8050 76° East 439 505 24,000  Level Atlanta Center
Mon 01:03:01 PM 32.7792 -86.6600 77° East 433 498 24,000  Level Atlanta Center
Mon 01:04:01 PM 32.8050 -86.5150 78° East 433 498 24,000  Level Atlanta Center
Mon 01:05:01 PM 32.8350 -86.3750 76° East 433 498 24,000  Level Atlanta Center
Mon 01:06:01 PM 32.8628 -86.2250 78° East 428 493 24,000  Level Atlanta Center
Mon 01:07:01 PM 32.8903 -86.0822 77° East 428 493 24,000  Level Atlanta Center
Mon 01:08:01 PM 32.9153 -85.9442 78° East 428 493 24,000  Level Atlanta Center
Mon 01:09:01 PM 32.9406 -85.8036 78° East 428 493 24,000  Level Atlanta Center
Mon 01:10:01 PM 32.9672 -85.6681 77° East 428 493 24,000 -550 Level Atlanta Center
Mon 01:11:01 PM 33.0044 -85.5325 72° East 428 493 22,900 -1,800 Descending Atlanta Center
Mon 01:12:01 PM 33.0478 -85.4042 68° East 418 481 20,400 -2,350 Descending Atlanta Center
Mon 01:13:01 PM 33.0906 -85.2983 64° Northeast 393 452 18,200 -2,250 Descending Atlanta Center
Mon 01:14:01 PM 33.1336 -85.1800 66° East 393 452 15,900 -2,100 Descending Atlanta Center
Mon 01:15:01 PM 33.1742 -85.0664 67° East 380 437 14,000 -950 Descending Atlanta Center
Mon 01:16:01 PM 33.2356 -84.9678 53° Northeast 363 418 14,000 -800 Level Atlanta Center
Mon 01:17:01 PM 33.3092 -84.8692 48° Northeast 358 412 12,400 -1,500 Descending Atlanta Center
Mon 01:18:01 PM 33.3767 -84.7825 47° Northeast 358 412 11,000 -700 Descending Atlanta Center
Mon 01:19:01 PM 33.4461 -84.6986 45° Northeast 343 395 11,000  Level Atlanta Center
Mon 01:20:01 PM 33.5069 -84.6217 47° Northeast 337 388 11,000  Level Atlanta Center
Mon 01:21:01 PM 33.5364 -84.5397 67° East 279 321 11,000 -1,110 Level Atlanta Center
Mon 01:22:54 PM 33.5333 -84.3500 91° East 277 319 7,800 -1,888 Descending Atlanta TRACON
Mon 01:23:59 PM 33.5333 -84.2667 90° East 256 295 5,400 -2,143 Descending Atlanta TRACON
Mon 01:25:00 PM 33.6000 -84.2333 23° Northeast 243 280 3,300 -1,240 Descending Atlanta TRACON
Mon 01:26:00 PM 33.6167 -84.3000 287° West 190 219 2,900 -550 Descending Atlanta TRACON
Mon 01:27:00 PM 33.6167 -84.3500 270° West 164 189 2,200 -800 Descending Atlanta TRACON
Mon 01:28:00 PM 33.6167 -84.4000 270° West 143 165 1,300 -900 Descending Atlanta TRACON
Mon 01:30:00 PM 33.6333 -84.4167 282° West  Level FlightAware Approximate
Mon 01:37:00 PM 33.6367 -84.4279 290° West  Level Estimated

Login

Don't have an account? Register now (free) for customized features, flight alerts, and more!